createdAt,value
2023-02-03T00:00:40.638Z,24.20
2023-02-03T00:03:07.987Z,23.50
2023-02-03T00:05:35.848Z,25.10
2023-02-03T00:08:04.787Z,25.80
2023-02-03T00:10:33.564Z,26.30
2023-02-03T00:13:01.360Z,24.70
2023-02-03T00:15:28.418Z,25.30
2023-02-03T00:17:58.882Z,24.20
2023-02-03T00:20:28.025Z,23.90
2023-02-03T00:23:05.351Z,23.50
2023-02-03T00:25:35.253Z,23.80
2023-02-03T00:28:02.516Z,25.40
2023-02-03T00:30:29.699Z,25.80
2023-02-03T00:33:01.160Z,23.20
2023-02-03T00:35:28.298Z,24.10
2023-02-03T00:37:55.816Z,24.20
2023-02-03T00:40:28.127Z,27.30
2023-02-03T00:42:55.526Z,24.90
2023-02-03T00:45:23.638Z,27.20
2023-02-03T00:47:51.112Z,25.70
2023-02-03T00:50:18.402Z,26.40
2023-02-03T00:52:45.532Z,25.00
2023-02-03T00:55:14.473Z,23.20
2023-02-03T00:57:43.989Z,26.10
2023-02-03T01:00:11.944Z,25.00
2023-02-03T01:02:38.985Z,25.90
2023-02-03T01:05:09.217Z,25.50
2023-02-03T01:07:42.654Z,25.90
2023-02-03T01:10:10.925Z,25.60
2023-02-03T01:12:39.307Z,26.80
2023-02-03T01:15:10.145Z,25.70
2023-02-03T01:17:38.684Z,25.00
2023-02-03T01:20:05.990Z,24.30
2023-02-03T01:22:33.236Z,25.70
2023-02-03T01:25:00.543Z,26.90
2023-02-03T01:27:27.595Z,26.80
2023-02-03T01:29:59.522Z,26.20
2023-02-03T01:32:27.719Z,26.10
2023-02-03T01:35:12.818Z,25.60
2023-02-03T01:37:45.879Z,25.10
2023-02-03T01:40:15.361Z,24.20
2023-02-03T01:42:45.148Z,27.10
2023-02-03T01:45:15.072Z,24.30
2023-02-03T01:47:48.875Z,24.50
2023-02-03T01:50:29.667Z,24.00
2023-02-03T01:53:03.313Z,26.20
2023-02-03T01:55:37.906Z,24.40
2023-02-03T01:58:10.113Z,25.50
2023-02-03T02:00:40.638Z,25.00
2023-02-03T02:03:10.193Z,24.40
2023-02-03T02:05:43.250Z,27.10
2023-02-03T02:08:13.215Z,25.40
2023-02-03T02:10:42.701Z,25.50
2023-02-03T02:55:47.224Z,26.70
2023-02-03T03:01:06.446Z,25.10
2023-02-03T03:03:40.769Z,28.30
2023-02-03T03:06:13.631Z,25.60
2023-02-03T03:08:47.889Z,23.60
2023-02-03T03:11:17.924Z,26.40
2023-02-03T03:13:51.329Z,28.50
2023-02-03T03:16:24.977Z,30.60
2023-02-03T03:19:07.450Z,31.40
2023-02-03T03:21:47.546Z,27.30
2023-02-03T03:24:19.231Z,25.40
2023-02-03T03:26:53.582Z,24.60
2023-02-03T03:29:46.598Z,24.90
2023-02-03T03:32:15.245Z,27.80
2023-02-03T03:34:43.670Z,24.20
2023-02-03T03:37:39.237Z,23.70
2023-02-03T03:40:11.251Z,23.60
2023-02-03T03:43:18.756Z,22.90
2023-02-03T03:46:10.047Z,25.50
2023-02-03T03:48:50.231Z,25.00
2023-02-03T03:51:26.004Z,25.10
2023-02-03T03:53:54.374Z,25.30
2023-02-03T03:56:26.341Z,27.10
2023-02-03T04:01:25.098Z,23.60
2023-02-03T04:03:58.119Z,24.60
2023-02-03T04:06:26.688Z,24.40
2023-02-03T04:08:55.167Z,25.70
2023-02-03T04:11:43.600Z,25.20
2023-02-03T04:14:13.986Z,26.80
2023-02-03T04:16:42.548Z,24.90
2023-02-03T04:19:11.655Z,24.60
2023-02-03T04:21:43.737Z,24.60
2023-02-03T04:24:13.749Z,24.50
2023-02-03T04:26:44.805Z,24.20
2023-02-03T04:29:14.794Z,24.40
2023-02-03T04:31:45.728Z,23.90
2023-02-03T04:34:16.171Z,25.00
2023-02-03T04:36:57.575Z,26.20
2023-02-03T04:39:28.233Z,22.00
2023-02-03T04:45:56.940Z,24.20
2023-02-03T04:48:28.963Z,21.00
2023-02-03T04:51:03.690Z,23.70
2023-02-03T04:53:33.774Z,24.80
2023-02-03T04:56:04.500Z,25.90
2023-02-03T04:58:33.716Z,35.00
2023-02-03T05:01:08.802Z,27.80
2023-02-03T05:03:39.297Z,22.80
2023-02-03T05:06:09.012Z,20.40
2023-02-03T05:08:37.877Z,21.30
2023-02-03T05:11:06.788Z,22.90
2023-02-03T05:13:39.249Z,22.80
2023-02-03T05:16:27.709Z,22.90
2023-02-03T05:18:59.424Z,24.30
2023-02-03T05:21:29.166Z,23.90
2023-02-03T05:24:00.988Z,23.40
2023-02-03T05:26:30.938Z,24.70
2023-02-03T05:28:59.240Z,24.10
2023-02-03T05:31:27.581Z,25.40
2023-02-03T05:33:56.780Z,25.50
2023-02-03T05:36:25.209Z,25.50
2023-02-03T05:38:54.048Z,24.90
2023-02-03T05:41:42.505Z,22.50
2023-02-03T05:44:11.490Z,21.80
2023-02-03T05:46:39.915Z,20.50
2023-02-03T05:49:10.812Z,21.10
2023-02-03T05:51:40.893Z,21.60
2023-02-03T05:57:19.566Z,22.40
2023-02-03T05:59:48.259Z,21.00
2023-02-03T06:02:18.811Z,22.30
2023-02-03T06:04:48.486Z,22.80
2023-02-03T06:07:17.001Z,21.90
2023-02-03T06:09:46.585Z,24.00
2023-02-03T06:12:16.738Z,21.50
2023-02-03T06:14:46.804Z,24.40
2023-02-03T06:17:15.792Z,23.60
2023-02-03T06:19:47.873Z,22.40
2023-02-03T06:22:16.902Z,23.10
2023-02-03T06:24:46.416Z,21.50
2023-02-03T06:27:15.363Z,20.90
2023-02-03T06:29:44.974Z,18.60
2023-02-03T06:32:54.739Z,16.90
2023-02-03T06:35:23.095Z,19.20
2023-02-03T06:37:52.824Z,19.10
2023-02-03T06:40:21.363Z,16.50
2023-02-03T06:46:34.501Z,18.00
2023-02-03T06:49:35.390Z,17.90
2023-02-03T06:52:59.929Z,16.60
2023-02-03T06:55:41.663Z,15.60
2023-02-03T07:02:10.299Z,12.40
2023-02-03T07:05:04.281Z,13.90
2023-02-03T07:12:25.648Z,12.20
2023-02-03T07:15:52.241Z,10.90
2023-02-03T07:18:47.446Z,11.90
2023-02-03T07:21:16.872Z,12.00
2023-02-03T07:23:50.578Z,12.50
2023-02-03T07:26:19.748Z,11.40
2023-02-03T07:28:49.155Z,10.40
2023-02-03T07:31:18.474Z,10.00
2023-02-03T07:33:51.016Z,11.10
2023-02-03T07:36:19.733Z,9.80
2023-02-03T07:41:29.450Z,9.80
2023-02-03T07:43:57.871Z,9.00
2023-02-03T07:46:26.491Z,8.60
2023-02-03T07:49:03.979Z,8.20
2023-02-03T07:55:51.791Z,4.60
2023-02-03T07:58:23.970Z,3.10
2023-02-03T08:00:56.466Z,3.20
2023-02-03T08:03:26.142Z,3.00
2023-02-03T08:05:58.193Z,3.70
2023-02-03T08:08:34.371Z,3.50
2023-02-03T08:11:03.739Z,3.50
2023-02-03T08:13:34.811Z,3.20
2023-02-03T08:16:06.508Z,2.40
2023-02-03T08:18:35.612Z,2.40
2023-02-03T08:21:05.724Z,2.40
2023-02-03T08:23:36.804Z,2.20
2023-02-03T08:26:07.027Z,2.80
2023-02-03T08:28:35.759Z,2.40
2023-02-03T08:31:14.023Z,2.20
2023-02-03T08:33:43.785Z,2.30
2023-02-03T08:36:14.838Z,1.60
2023-02-03T08:38:44.102Z,1.90
2023-02-03T08:41:19.771Z,1.90
2023-02-03T08:43:51.396Z,1.70
2023-02-03T08:46:20.213Z,2.80
2023-02-03T08:48:53.079Z,2.20
2023-02-03T08:51:22.782Z,2.00
2023-02-03T08:53:54.607Z,2.30
2023-02-03T08:56:27.274Z,2.50
2023-02-03T08:59:01.229Z,2.30
2023-02-03T09:01:35.559Z,2.80
2023-02-03T09:04:08.190Z,3.10
2023-02-03T09:09:12.267Z,2.90
2023-02-03T09:11:45.754Z,2.80
2023-02-03T09:14:16.284Z,3.30
2023-02-03T09:16:45.966Z,2.90
2023-02-03T09:19:18.968Z,3.00
2023-02-03T09:21:50.676Z,3.20
2023-02-03T09:24:20.500Z,3.10
2023-02-03T09:26:49.795Z,3.70
2023-02-03T09:29:20.165Z,3.40
2023-02-03T09:31:53.943Z,5.50
2023-02-03T09:34:24.774Z,4.40
2023-02-03T09:36:58.133Z,4.20
2023-02-03T09:39:41.193Z,4.10
2023-02-03T12:14:49.407Z,4.20
2023-02-03T12:17:49.708Z,3.90
2023-02-03T12:20:28.538Z,3.00
2023-02-03T12:22:59.516Z,3.30
2023-02-03T12:26:03.048Z,3.90
2023-02-03T12:29:03.650Z,4.00
2023-02-03T12:32:22.343Z,3.10
2023-02-03T12:34:50.587Z,3.80
2023-02-03T12:37:26.843Z,4.20
2023-02-03T12:40:00.018Z,4.40
2023-02-03T12:42:29.440Z,4.40
2023-02-03T12:45:11.581Z,5.00
2023-02-03T12:47:50.894Z,3.90
2023-02-03T12:50:40.834Z,4.30
2023-02-03T12:55:55.401Z,5.30
2023-02-03T12:58:33.620Z,4.60
2023-02-03T13:01:26.512Z,4.70
2023-02-03T13:03:58.575Z,5.30
2023-02-03T13:06:43.005Z,6.30
2023-02-03T13:09:32.688Z,5.50
2023-02-03T13:12:20.217Z,5.70
2023-02-03T13:15:21.268Z,5.50
2023-02-03T13:18:29.516Z,6.30
2023-02-03T13:20:56.930Z,5.70
2023-02-03T13:23:26.459Z,7.50
2023-02-03T13:26:12.346Z,5.20
2023-02-03T13:29:03.107Z,6.40
2023-02-03T13:31:40.725Z,5.60
2023-02-03T13:34:37.461Z,5.10
2023-02-03T13:37:25.972Z,6.00
2023-02-03T13:40:17.912Z,5.80
2023-02-03T13:42:58.741Z,6.10
2023-02-03T13:45:38.679Z,4.50
2023-02-03T13:48:16.065Z,5.70
2023-02-03T13:50:47.449Z,4.90
2023-02-03T13:53:18.592Z,6.10
2023-02-03T13:55:56.921Z,5.80
2023-02-03T13:58:34.903Z,4.90
2023-02-03T14:01:28.881Z,5.40
2023-02-03T14:04:00.344Z,4.10
2023-02-03T14:06:38.968Z,3.80
2023-02-03T14:09:33.855Z,4.60
2023-02-03T14:12:30.412Z,3.70
2023-02-03T14:15:12.780Z,3.30
2023-02-03T14:17:45.935Z,3.70
2023-02-03T14:20:28.339Z,3.40
2023-02-03T14:23:01.339Z,3.30
2023-02-03T14:25:32.383Z,3.30
2023-02-03T14:28:02.652Z,3.10
2023-02-03T14:30:55.067Z,2.80
2023-02-03T14:33:47.727Z,2.80
2023-02-03T14:36:36.738Z,2.80
2023-02-03T14:39:37.753Z,3.20
2023-02-03T14:42:18.311Z,3.30
2023-02-03T14:45:43.121Z,2.80
2023-02-03T14:48:31.405Z,3.10
2023-02-03T14:51:10.335Z,2.90
2023-02-03T14:54:02.317Z,2.60
2023-02-03T14:57:30.814Z,2.70
2023-02-03T15:00:36.365Z,3.50
2023-02-03T15:03:09.605Z,2.70
2023-02-03T15:06:03.040Z,2.80
2023-02-03T15:08:46.036Z,4.40
2023-02-03T15:11:31.211Z,11.50
2023-02-03T15:14:26.320Z,4.30
2023-02-03T15:17:17.311Z,3.50
2023-02-03T15:20:04.250Z,2.70
2023-02-03T15:22:42.837Z,2.80
2023-02-03T15:25:19.886Z,2.20
2023-02-03T15:27:57.937Z,2.70
2023-02-03T15:31:12.492Z,3.30
2023-02-03T15:36:26.554Z,2.70
2023-02-03T15:39:15.899Z,2.40
2023-02-03T15:41:52.516Z,2.50
2023-02-03T15:44:40.726Z,2.30
2023-02-03T15:47:32.283Z,2.80
2023-02-03T15:50:26.244Z,3.80
2023-02-03T15:52:54.125Z,3.90
2023-02-03T15:55:26.675Z,5.70
2023-02-03T15:57:54.966Z,4.20
2023-02-03T16:00:52.047Z,6.30
2023-02-03T16:03:34.757Z,4.20
2023-02-03T16:06:38.814Z,3.20
2023-02-03T16:09:32.813Z,3.60
2023-02-03T16:12:23.366Z,4.10
2023-02-03T16:17:44.738Z,3.80
2023-02-03T16:20:33.584Z,4.00
2023-02-03T16:23:22.189Z,4.20
2023-02-03T16:26:28.924Z,3.00
2023-02-03T16:29:49.576Z,3.90
2023-02-03T16:32:38.047Z,3.90
2023-02-03T16:35:35.473Z,3.80
2023-02-03T16:38:26.237Z,3.90
2023-02-03T16:41:15.537Z,4.10
2023-02-03T16:44:34.264Z,4.40
2023-02-03T16:47:40.725Z,4.50
2023-02-03T16:50:38.662Z,3.60
2023-02-03T16:53:23.051Z,3.60
2023-02-03T16:55:55.833Z,3.70
2023-02-03T16:58:25.399Z,4.60
2023-02-03T17:01:00.076Z,3.40
2023-02-03T17:06:14.983Z,3.60
2023-02-03T17:11:59.554Z,4.00
2023-02-03T17:14:59.071Z,4.90
2023-02-03T17:18:01.446Z,10.50
2023-02-03T17:24:24.236Z,4.30
2023-02-03T17:29:56.364Z,5.10
2023-02-03T17:35:34.326Z,4.20
2023-02-03T17:38:01.918Z,4.30
2023-02-03T17:55:01.471Z,4.90
2023-02-03T17:57:35.512Z,4.40
